Time;durP1;ratioP1;P1;durP2;ratioP2;P2;SDS_P1;SDS_P2;PMS_P1;PMS_P2;Temp;Humidity;BMP_temperature;BMP_pressure;BME280_temperature;BME280_humidity;BME280_pressure;Samples;Min_cycle;Max_cycle;Signal;HPM_P1;HPM_P2
2021/08/28 00:01:39;;;;;;;5.68;3.17;;;16.50;99.90;;;;;;5011492;28;20517;-86
2021/08/28 00:04:05;;;;;;;3.53;2.70;;;16.40;99.90;;;;;;5011681;28;20069;-86
2021/08/28 00:06:30;;;;;;;3.92;2.90;;;16.50;99.90;;;;;;5011472;28;20018;-86
2021/08/28 00:08:56;;;;;;;2.70;2.50;;;16.40;99.90;;;;;;5011751;28;20029;-86
2021/08/28 00:11:21;;;;;;;3.13;2.83;;;16.40;99.90;;;;;;5011279;28;20157;-87
2021/08/28 00:13:47;;;;;;;4.95;2.80;;;16.50;99.90;;;;;;5011506;28;20040;-87
2021/08/28 00:16:13;;;;;;;3.75;2.80;;;16.30;99.90;;;;;;5011490;28;20131;-86
2021/08/28 00:18:39;;;;;;;4.10;3.08;;;16.40;99.90;;;;;;5010981;28;20061;-86
2021/08/28 00:21:06;;;;;;;5.55;2.92;;;16.50;99.90;;;;;;5011795;28;20497;-87
2021/08/28 00:23:32;;;;;;;3.22;2.78;;;16.40;99.90;;;;;;5010918;28;20120;-87
2021/08/28 00:25:58;;;;;;;4.72;3.05;;;16.30;99.90;;;;;;5010984;28;20113;-86
2021/08/28 00:28:23;;;;;;;4.07;3.17;;;16.40;99.90;;;;;;5009919;28;20030;-86
2021/08/28 00:30:49;;;;;;;5.10;3.38;;;16.50;99.90;;;;;;5013019;28;20402;-87
2021/08/28 00:33:16;;;;;;;5.75;3.38;;;16.40;99.90;;;;;;5011106;28;20431;-86
2021/08/28 00:35:43;;;;;;;4.82;2.85;;;16.40;99.90;;;;;;5015142;28;20041;-86
2021/08/28 00:38:09;;;;;;;5.72;3.20;;;16.30;99.90;;;;;;5015297;28;20042;-86
2021/08/28 00:40:36;;;;;;;4.00;3.17;;;16.20;99.90;;;;;;5014983;28;20561;-86
2021/08/28 00:43:03;;;;;;;4.85;3.20;;;16.10;99.90;;;;;;5015085;28;20508;-86
2021/08/28 00:45:30;;;;;;;4.38;2.85;;;16.20;99.90;;;;;;5015085;28;20030;-86
2021/08/28 00:47:57;;;;;;;3.75;2.65;;;16.00;99.90;;;;;;5014096;28;20399;-86
2021/08/28 00:50:27;;;;;;;2.95;2.70;;;15.80;99.90;;;;;;5014862;28;20026;-87
2021/08/28 00:52:54;;;;;;;3.83;2.83;;;15.80;99.90;;;;;;5015117;28;20089;-86
2021/08/28 00:55:24;;;;;;;5.75;3.00;;;15.80;99.90;;;;;;5014760;28;20072;-87
2021/08/28 00:57:50;;;;;;;4.38;3.05;;;15.60;99.90;;;;;;4999252;28;20120;-86
2021/08/28 01:00:17;;;;;;;3.58;2.63;;;15.70;99.90;;;;;;5016209;28;20578;-86
2021/08/28 01:02:48;;;;;;;3.67;2.70;;;15.70;99.90;;;;;;5014251;28;20026;-87
2021/08/28 01:05:50;;;;;;;4.00;2.90;;;15.70;99.90;;;;;;5015170;28;20398;-87
2021/08/28 01:08:29;;;;;;;4.97;3.42;;;15.90;99.90;;;;;;4953916;29;20035;-86
2021/08/28 01:11:07;;;;;;;5.05;2.63;;;15.90;99.90;;;;;;4954592;29;20227;-87
2021/08/28 01:13:34;;;;;;;4.35;2.67;;;15.80;99.90;;;;;;4954332;29;20038;-86
2021/08/28 01:16:00;;;;;;;2.88;2.47;;;15.90;99.90;;;;;;4953698;29;20035;-87
2021/08/28 01:18:27;;;;;;;5.13;2.70;;;15.80;99.90;;;;;;4953986;29;20054;-87
2021/08/28 01:21:04;;;;;;;5.45;2.92;;;15.80;99.90;;;;;;4954695;29;20437;-86
2021/08/28 01:23:33;;;;;;;3.90;2.53;;;15.70;99.90;;;;;;4953570;29;20051;-86
2021/08/28 01:26:05;;;;;;;3.22;2.83;;;15.80;99.90;;;;;;4953984;29;20027;-86
2021/08/28 01:28:42;;;;;;;2.60;2.35;;;15.80;99.90;;;;;;4952917;29;20125;-86
2021/08/28 01:31:08;;;;;;;3.25;2.78;;;15.80;99.90;;;;;;4953537;29;20032;-87
2021/08/28 01:33:36;;;;;;;5.70;3.00;;;15.80;99.90;;;;;;4954086;29;20043;-86
2021/08/28 01:36:02;;;;;;;8.45;2.90;;;15.80;99.90;;;;;;4954059;29;20460;-86
2021/08/28 01:38:28;;;;;;;3.60;3.03;;;15.80;99.90;;;;;;4953932;29;20050;-86
2021/08/28 01:40:54;;;;;;;4.38;2.85;;;15.70;99.90;;;;;;4953805;29;20041;-87
2021/08/28 01:43:21;;;;;;;3.42;2.58;;;15.70;99.90;;;;;;5010451;28;20037;-87
2021/08/28 01:45:49;;;;;;;3.80;2.80;;;15.60;99.90;;;;;;4998480;28;20033;-86
2021/08/28 01:48:16;;;;;;;4.40;3.20;;;15.50;99.90;;;;;;5014848;28;20112;-87
2021/08/28 01:50:42;;;;;;;4.65;3.10;;;15.60;99.90;;;;;;5013771;28;20065;-87
2021/08/28 01:53:08;;;;;;;4.32;3.13;;;15.60;99.90;;;;;;5012568;28;20049;-86
2021/08/28 01:55:34;;;;;;;3.55;3.20;;;15.60;99.90;;;;;;5013848;28;20080;-87
2021/08/28 01:58:00;;;;;;;4.95;3.00;;;15.50;99.90;;;;;;5013672;28;20518;-86
2021/08/28 02:00:26;;;;;;;4.35;2.75;;;15.50;99.90;;;;;;5013780;28;20084;-86
2021/08/28 02:02:52;;;;;;;3.53;2.63;;;15.40;99.90;;;;;;5028220;28;20026;-86
2021/08/28 02:05:17;;;;;;;4.47;2.90;;;15.40;99.90;;;;;;5013803;28;20037;-86
2021/08/28 02:08:03;;;;;;;4.80;3.10;;;15.30;99.90;;;;;;5012169;28;20018;-87
2021/08/28 02:10:47;;;;;;;3.33;3.00;;;15.40;99.90;;;;;;5013057;28;20941;-86
2021/08/28 02:13:33;;;;;;;4.75;3.13;;;15.40;99.90;;;;;;5013835;28;20033;-86
2021/08/28 02:16:10;;;;;;;4.22;3.00;;;15.30;99.90;;;;;;4999776;28;20104;-86
2021/08/28 02:18:46;;;;;;;4.55;2.78;;;15.30;99.90;;;;;;5013297;28;20025;-86
2021/08/28 02:21:14;;;;;;;4.22;3.15;;;15.30;99.90;;;;;;5013900;28;20029;-86
2021/08/28 02:24:01;;;;;;;4.38;2.92;;;15.30;99.90;;;;;;5013037;28;20490;-86
2021/08/28 02:26:44;;;;;;;5.97;2.80;;;15.10;99.90;;;;;;5012740;28;20033;-87
2021/08/28 02:29:24;;;;;;;5.05;2.83;;;15.10;99.90;;;;;;5011568;28;20065;-86
2021/08/28 02:31:51;;;;;;;5.03;2.53;;;15.20;99.90;;;;;;5012984;28;20030;-86
2021/08/28 02:34:18;;;;;;;4.00;2.67;;;15.10;99.90;;;;;;5013017;28;20030;-86
2021/08/28 02:36:45;;;;;;;4.07;3.05;;;15.10;99.90;;;;;;5013216;28;20076;-85
2021/08/28 02:39:13;;;;;;;5.63;2.90;;;15.20;99.90;;;;;;5013509;28;20411;-86
2021/08/28 02:41:42;;;;;;;5.78;2.88;;;15.10;99.90;;;;;;5012948;28;20026;-87
2021/08/28 02:44:09;;;;;;;4.10;3.00;;;15.10;99.90;;;;;;5012444;28;20040;-87
2021/08/28 02:46:35;;;;;;;4.38;2.53;;;15.00;99.90;;;;;;5013051;28;20106;-86
2021/08/28 02:49:03;;;;;;;4.70;2.80;;;15.00;99.90;;;;;;5011176;28;20553;-86
2021/08/28 02:51:29;;;;;;;3.92;3.00;;;15.00;99.90;;;;;;5013272;28;20025;-86
2021/08/28 02:53:56;;;;;;;4.43;2.88;;;15.00;99.90;;;;;;5013022;28;20033;-86
2021/08/28 02:56:24;;;;;;;4.13;2.60;;;14.90;99.90;;;;;;5027440;28;20029;-87
2021/08/28 02:58:50;;;;;;;4.15;2.70;;;14.90;99.90;;;;;;5012307;28;20053;-86
2021/08/28 03:01:16;;;;;;;5.78;2.75;;;14.80;99.90;;;;;;5012761;28;20244;-86
2021/08/28 03:03:43;;;;;;;6.40;2.70;;;14.80;99.90;;;;;;5012031;28;20112;-86
2021/08/28 03:06:10;;;;;;;6.13;3.00;;;14.70;99.90;;;;;;5011797;28;20032;-86
2021/08/28 03:08:37;;;;;;;5.72;2.83;;;14.80;99.90;;;;;;5011915;28;20044;-86
2021/08/28 03:11:03;;;;;;;2.97;2.40;;;14.80;99.90;;;;;;5011696;28;20045;-87
2021/08/28 03:13:30;;;;;;;4.40;2.80;;;14.70;99.90;;;;;;5012487;28;20038;-86
2021/08/28 03:15:56;;;;;;;4.55;2.88;;;14.70;99.90;;;;;;5012370;28;20022;-86
2021/08/28 03:18:24;;;;;;;8.95;2.90;;;14.50;99.90;;;;;;5012619;28;20113;-86
2021/08/28 03:20:52;;;;;;;3.83;2.60;;;14.50;99.90;;;;;;5012206;28;20052;-86
2021/08/28 03:23:27;;;;;;;3.63;2.67;;;14.50;99.90;;;;;;5012147;28;20048;-86
2021/08/28 03:25:52;;;;;;;3.83;2.78;;;14.60;99.90;;;;;;5011679;28;20021;-86
2021/08/28 03:28:19;;;;;;;3.60;2.78;;;14.60;99.90;;;;;;5012081;28;20505;-86
2021/08/28 03:30:48;;;;;;;4.03;2.50;;;14.60;99.90;;;;;;5011946;28;20566;-86
2021/08/28 03:33:17;;;;;;;4.85;2.78;;;14.60;99.90;;;;;;5012907;28;20554;-86
2021/08/28 03:35:45;;;;;;;3.90;2.40;;;14.60;99.90;;;;;;5010844;28;20447;-86
2021/08/28 03:38:11;;;;;;;5.13;2.90;;;14.60;99.90;;;;;;5011305;28;20049;-87
2021/08/28 03:40:38;;;;;;;3.22;2.42;;;14.60;99.90;;;;;;5012409;28;20557;-86
2021/08/28 03:43:04;;;;;;;3.58;2.42;;;14.50;99.90;;;;;;5011617;28;20034;-86
2021/08/28 03:45:31;;;;;;;4.65;2.50;;;14.40;99.90;;;;;;5011808;28;20380;-86
2021/08/28 03:47:57;;;;;;;4.55;2.70;;;14.40;99.90;;;;;;5012528;28;20371;-86
2021/08/28 03:50:23;;;;;;;5.35;3.17;;;14.40;99.90;;;;;;5011115;28;20394;-86
2021/08/28 03:52:49;;;;;;;3.97;2.65;;;14.40;99.90;;;;;;5011086;28;20032;-86
2021/08/28 03:55:15;;;;;;;4.07;2.65;;;14.30;99.90;;;;;;5011058;28;20116;-87
2021/08/28 03:57:41;;;;;;;4.45;2.63;;;14.20;99.90;;;;;;5011516;28;20050;-86
2021/08/28 04:00:07;;;;;;;3.85;2.33;;;14.30;99.90;;;;;;5012472;28;20038;-86
2021/08/28 04:02:33;;;;;;;4.80;2.63;;;14.30;99.90;;;;;;5011166;28;20560;-87
2021/08/28 04:04:58;;;;;;;2.95;2.50;;;14.30;99.90;;;;;;5011715;28;20113;-86
2021/08/28 04:07:24;;;;;;;2.92;2.30;;;14.30;99.90;;;;;;5011133;28;20041;-87
2021/08/28 04:09:50;;;;;;;6.88;2.65;;;14.20;99.90;;;;;;5010001;28;20026;-86
2021/08/28 04:12:16;;;;;;;4.45;2.60;;;14.20;99.90;;;;;;5007969;28;20057;-87
2021/08/28 04:14:41;;;;;;;5.47;2.63;;;14.20;99.90;;;;;;5011219;28;20036;-86
2021/08/28 04:17:07;;;;;;;3.33;2.50;;;14.10;99.90;;;;;;5011193;28;20038;-86
2021/08/28 04:19:33;;;;;;;4.25;2.88;;;14.10;99.90;;;;;;5011568;28;20050;-86
2021/08/28 04:21:59;;;;;;;3.67;2.70;;;14.10;99.90;;;;;;5009631;28;20026;-86
2021/08/28 04:24:24;;;;;;;3.70;2.67;;;14.10;99.90;;;;;;5010108;28;20026;-86
2021/08/28 04:26:50;;;;;;;3.58;2.80;;;14.00;99.90;;;;;;5011841;28;20487;-86
2021/08/28 04:29:16;;;;;;;4.13;2.80;;;14.00;99.90;;;;;;5011397;28;20025;-86
2021/08/28 04:31:42;;;;;;;5.30;2.50;;;13.90;99.90;;;;;;5009846;28;20467;-86
2021/08/28 04:34:07;;;;;;;3.88;2.60;;;14.00;99.90;;;;;;5011293;28;20022;-86
2021/08/28 04:36:33;;;;;;;5.95;2.47;;;13.90;99.90;;;;;;5011598;28;20446;-86
2021/08/28 04:39:00;;;;;;;4.38;2.40;;;13.90;99.90;;;;;;5011415;28;20030;-86
2021/08/28 04:41:26;;;;;;;4.38;2.45;;;13.80;99.90;;;;;;5010967;28;20030;-86
2021/08/28 04:43:52;;;;;;;5.18;2.47;;;13.90;99.90;;;;;;5010931;28;20028;-86
2021/08/28 04:46:17;;;;;;;3.10;2.50;;;13.90;99.90;;;;;;5009553;28;20025;-86
2021/08/28 04:48:43;;;;;;;4.10;2.72;;;13.90;99.90;;;;;;5011390;28;20059;-86
2021/08/28 04:51:09;;;;;;;4.63;2.47;;;13.80;99.90;;;;;;5026728;28;20456;-86
2021/08/28 04:53:35;;;;;;;3.83;2.47;;;13.70;99.90;;;;;;5010850;28;20080;-86
2021/08/28 04:56:00;;;;;;;6.03;2.67;;;13.80;99.90;;;;;;5010614;28;20046;-86
2021/08/28 04:58:26;;;;;;;6.78;2.60;;;13.80;99.90;;;;;;5011335;28;20032;-86
2021/08/28 05:00:51;;;;;;;4.78;2.90;;;13.90;99.90;;;;;;5011341;28;20084;-87
2021/08/28 05:03:18;;;;;;;4.32;2.45;;;14.00;99.90;;;;;;5011496;28;20483;-86
2021/08/28 05:05:44;;;;;;;4.32;2.80;;;14.00;99.90;;;;;;5010523;28;20379;-86
2021/08/28 05:08:10;;;;;;;4.68;2.45;;;14.00;99.90;;;;;;5009208;28;20041;-86
2021/08/28 05:10:35;;;;;;;5.40;2.70;;;14.00;99.90;;;;;;5010420;28;20081;-86
2021/08/28 05:13:01;;;;;;;5.20;2.50;;;14.00;99.90;;;;;;5010796;28;20079;-86
2021/08/28 05:15:28;;;;;;;4.68;2.70;;;14.10;99.90;;;;;;5010942;28;20034;-86
2021/08/28 05:17:53;;;;;;;4.03;2.67;;;14.10;99.90;;;;;;5011603;28;20060;-86
2021/08/28 05:20:19;;;;;;;5.05;2.75;;;14.20;99.90;;;;;;5013865;28;20490;-86
2021/08/28 05:22:44;;;;;;;5.18;2.80;;;14.40;99.90;;;;;;5014189;28;20038;-86
2021/08/28 05:25:10;;;;;;;6.68;3.22;;;14.20;99.90;;;;;;5015325;28;20498;-86
2021/08/28 05:27:36;;;;;;;4.18;2.72;;;14.10;99.90;;;;;;5029646;28;20117;-86
2021/08/28 05:30:02;;;;;;;3.60;2.70;;;13.80;99.90;;;;;;5014807;28;20115;-87
2021/08/28 05:32:27;;;;;;;3.38;2.67;;;13.90;99.90;;;;;;5012804;28;20037;-86
2021/08/28 05:34:55;;;;;;;5.32;2.83;;;14.00;99.90;;;;;;5014142;28;20026;-86
2021/08/28 05:37:21;;;;;;;3.95;2.67;;;14.10;99.90;;;;;;5013601;28;20042;-87
2021/08/28 05:39:47;;;;;;;3.58;2.70;;;14.20;99.90;;;;;;5014114;28;20112;-86
2021/08/28 05:42:12;;;;;;;7.45;2.78;;;14.20;99.90;;;;;;5014550;28;20229;-86
2021/08/28 05:44:38;;;;;;;4.72;2.42;;;14.30;99.90;;;;;;5013040;28;20033;-86
2021/08/28 05:47:04;;;;;;;3.70;2.55;;;14.40;99.90;;;;;;5013238;28;20121;-90
2021/08/28 05:49:30;;;;;;;3.67;2.40;;;14.40;99.90;;;;;;5014147;28;20033;-94
2021/08/28 05:51:55;;;;;;;3.92;2.70;;;14.40;99.90;;;;;;5014399;28;20029;-95
2021/08/28 05:54:21;;;;;;;4.43;2.80;;;14.40;99.90;;;;;;5014806;28;20390;-92
2021/08/28 05:56:47;;;;;;;3.90;2.65;;;14.30;99.90;;;;;;5014089;28;20064;-91
2021/08/28 05:59:12;;;;;;;3.60;2.85;;;14.30;99.90;;;;;;5012503;28;20117;-93
2021/08/28 06:01:38;;;;;;;3.92;2.78;;;14.30;99.90;;;;;;5014504;28;20040;-91
2021/08/28 06:04:04;;;;;;;4.10;2.83;;;14.10;99.90;;;;;;5013365;28;20021;-91
2021/08/28 06:06:29;;;;;;;4.13;2.60;;;14.30;99.90;;;;;;5014058;28;20029;-89
2021/08/28 06:08:55;;;;;;;4.47;2.75;;;14.50;99.90;;;;;;5014202;28;20100;-89
2021/08/28 06:11:25;;;;;;;3.47;2.60;;;14.30;99.90;;;;;;5013227;28;20050;-87
2021/08/28 06:13:52;;;;;;;5.32;2.90;;;14.30;99.90;;;;;;5013311;28;20511;-84
2021/08/28 06:16:17;;;;;;;3.28;2.88;;;14.60;99.90;;;;;;5011964;28;20022;-84
2021/08/28 06:18:43;;;;;;;5.07;3.10;;;14.80;99.90;;;;;;5013030;28;20072;-87
2021/08/28 06:21:09;;;;;;;5.00;3.25;;;14.70;99.90;;;;;;5014067;28;20052;-87
2021/08/28 06:23:34;;;;;;;7.00;2.70;;;15.00;99.90;;;;;;5013129;28;20045;-84
2021/08/28 06:26:00;;;;;;;4.05;2.70;;;14.90;99.90;;;;;;5012919;28;20080;-85
2021/08/28 06:28:26;;;;;;;3.53;2.70;;;14.90;99.90;;;;;;5012726;28;20026;-84
2021/08/28 06:30:51;;;;;;;3.72;2.63;;;15.00;99.90;;;;;;5009327;28;20038;-83
2021/08/28 06:33:17;;;;;;;4.65;2.65;;;15.00;99.90;;;;;;5010317;28;20018;-84
2021/08/28 06:35:43;;;;;;;4.25;2.90;;;15.20;99.90;;;;;;5012577;28;20434;-84
2021/08/28 06:38:08;;;;;;;4.05;2.50;;;15.30;99.90;;;;;;5012769;28;20038;-83
2021/08/28 06:40:34;;;;;;;3.95;2.70;;;15.40;99.90;;;;;;5012640;28;20562;-83
2021/08/28 06:42:59;;;;;;;4.20;2.85;;;15.40;99.90;;;;;;5013283;28;20371;-84
2021/08/28 06:45:25;;;;;;;5.45;3.05;;;15.30;99.90;;;;;;5012926;28;20517;-77
2021/08/28 06:47:51;;;;;;;3.13;2.60;;;15.50;99.90;;;;;;5012332;28;20076;-76
2021/08/28 06:50:17;;;;;;;6.30;3.10;;;15.70;99.90;;;;;;5012411;28;20053;-81
2021/08/28 06:52:43;;;;;;;5.78;2.75;;;15.90;99.90;;;;;;5012816;28;20087;-80
2021/08/28 06:55:09;;;;;;;4.57;3.03;;;16.00;99.90;;;;;;5012229;28;20446;-83
2021/08/28 06:57:34;;;;;;;3.95;2.50;;;15.80;99.90;;;;;;5012891;28;20105;-93
2021/08/28 07:00:00;;;;;;;4.20;2.75;;;15.80;99.90;;;;;;5013060;28;20034;-84
2021/08/28 07:02:26;;;;;;;5.50;2.70;;;16.20;99.90;;;;;;5010388;28;20044;-90
2021/08/28 07:04:52;;;;;;;5.80;2.90;;;15.90;99.90;;;;;;5012685;28;20022;-91
2021/08/28 07:07:17;;;;;;;3.92;2.47;;;16.00;99.90;;;;;;5012841;28;20025;-89
2021/08/28 07:09:43;;;;;;;5.35;2.67;;;16.00;99.90;;;;;;5013014;28;20030;-91
2021/08/28 07:12:09;;;;;;;5.05;2.83;;;15.70;99.90;;;;;;5013911;28;20060;-90
2021/08/28 07:14:34;;;;;;;5.07;3.00;;;15.90;99.90;;;;;;5012532;28;20066;-92
2021/08/28 07:17:00;;;;;;;4.32;2.67;;;16.00;99.90;;;;;;5000407;28;20049;-85
2021/08/28 07:19:25;;;;;;;6.22;3.08;;;15.90;99.90;;;;;;5000623;28;20040;-92
2021/08/28 07:21:51;;;;;;;4.07;2.72;;;15.80;99.90;;;;;;5009562;28;20529;-85
2021/08/28 07:24:17;;;;;;;4.90;2.75;;;15.90;99.90;;;;;;5012512;28;20141;-87
2021/08/28 07:26:42;;;;;;;5.57;2.90;;;16.20;99.90;;;;;;5009243;28;20475;-88
2021/08/28 07:29:08;;;;;;;5.35;2.90;;;16.40;99.90;;;;;;5009104;28;20108;-89
2021/08/28 07:31:34;;;;;;;4.28;2.88;;;16.80;99.90;;;;;;5010922;28;20052;-89
2021/08/28 07:34:00;;;;;;;3.58;3.00;;;16.80;99.90;;;;;;5009293;28;20033;-89
2021/08/28 07:36:25;;;;;;;5.28;3.10;;;16.90;99.90;;;;;;5012000;28;20543;-90
2021/08/28 07:38:51;;;;;;;5.20;2.80;;;16.90;99.90;;;;;;5011606;28;20038;-91
2021/08/28 07:41:16;;;;;;;3.50;2.90;;;17.20;99.90;;;;;;5010370;28;20036;-91
2021/08/28 07:43:43;;;;;;;3.50;2.35;;;17.30;99.90;;;;;;5010402;28;20116;-90
2021/08/28 07:46:09;;;;;;;4.55;2.40;;;17.30;99.90;;;;;;5010501;28;20026;-90
2021/08/28 07:48:34;;;;;;;11.65;6.85;;;17.40;99.90;;;;;;5011142;28;20049;-89
2021/08/28 07:51:00;;;;;;;6.25;4.32;;;17.00;99.90;;;;;;5012223;28;20045;-85
2021/08/28 07:53:26;;;;;;;32.53;18.70;;;17.10;99.90;;;;;;5009687;28;20573;-85
2021/08/28 07:55:51;;;;;;;15.23;8.32;;;16.70;99.90;;;;;;5009949;28;20022;-85
2021/08/28 07:58:17;;;;;;;7.68;5.20;;;17.10;99.90;;;;;;5009802;28;20041;-85
2021/08/28 08:00:42;;;;;;;4.32;3.22;;;17.50;99.90;;;;;;5011515;28;20105;-86
2021/08/28 08:03:08;;;;;;;9.48;5.60;;;17.60;99.90;;;;;;5011997;28;20033;-86
2021/08/28 08:05:34;;;;;;;9.45;5.28;;;17.60;99.90;;;;;;5010912;28;20029;-86
2021/08/28 08:07:59;;;;;;;6.82;3.88;;;17.20;99.90;;;;;;5011484;28;20033;-86
2021/08/28 08:10:25;;;;;;;6.55;3.30;;;17.20;99.90;;;;;;5011816;28;20026;-87
2021/08/28 08:12:51;;;;;;;6.68;4.78;;;17.20;99.90;;;;;;5010978;28;20041;-87
2021/08/28 08:15:17;;;;;;;9.68;6.80;;;17.30;99.90;;;;;;5011568;28;20116;-86
2021/08/28 08:17:42;;;;;;;3.97;3.10;;;17.20;99.90;;;;;;5011406;28;20111;-86
2021/08/28 08:20:08;;;;;;;5.38;3.60;;;17.10;99.90;;;;;;5011295;28;20030;-86
2021/08/28 08:22:34;;;;;;;4.10;2.83;;;17.00;99.90;;;;;;5011706;28;20033;-86
2021/08/28 08:24:59;;;;;;;13.30;7.88;;;17.00;99.90;;;;;;5011284;28;20025;-86
2021/08/28 08:27:25;;;;;;;7.70;5.22;;;17.10;99.90;;;;;;5011506;28;20057;-87
2021/08/28 08:29:51;;;;;;;6.22;4.60;;;16.90;99.90;;;;;;5011621;28;20431;-86
2021/08/28 08:32:16;;;;;;;3.72;3.13;;;17.00;99.90;;;;;;5011037;28;20021;-86
2021/08/28 08:34:42;;;;;;;8.05;3.05;;;17.10;99.90;;;;;;5011267;28;20034;-86
2021/08/28 08:37:08;;;;;;;5.47;3.05;;;17.40;99.90;;;;;;5011159;28;20046;-85
2021/08/28 08:39:34;;;;;;;5.18;2.60;;;17.50;99.90;;;;;;5011689;28;20045;-86
2021/08/28 08:42:01;;;;;;;2.80;2.50;;;17.50;99.90;;;;;;5009462;28;20030;-87
2021/08/28 08:44:28;;;;;;;3.38;2.30;;;17.20;99.90;;;;;;5010094;28;20029;-86
2021/08/28 08:46:54;;;;;;;4.72;3.05;;;17.30;99.90;;;;;;5011364;28;20022;-87
2021/08/28 08:49:21;;;;;;;3.80;2.35;;;17.50;99.90;;;;;;5011258;28;20029;-88
2021/08/28 08:51:48;;;;;;;4.75;2.47;;;17.70;99.90;;;;;;5012847;28;20033;-87
2021/08/28 08:54:14;;;;;;;3.63;2.85;;;17.70;99.90;;;;;;5015836;28;20036;-87
2021/08/28 08:56:40;;;;;;;3.60;2.40;;;17.90;99.90;;;;;;5014649;28;20112;-87
2021/08/28 08:59:06;;;;;;;3.60;2.97;;;17.80;99.90;;;;;;5015225;28;20080;-87
2021/08/28 09:01:31;;;;;;;4.20;2.55;;;17.80;99.90;;;;;;5015475;28;20022;-87
2021/08/28 09:03:57;;;;;;;3.35;2.58;;;17.80;99.90;;;;;;5015461;28;20410;-87
2021/08/28 09:06:23;;;;;;;2.97;2.63;;;18.10;99.90;;;;;;5015174;28;20057;-87
2021/08/28 09:08:49;;;;;;;2.88;2.42;;;17.90;99.90;;;;;;5015260;28;20064;-87
2021/08/28 09:11:31;;;;;;;3.72;2.10;;;18.00;99.90;;;;;;5014182;28;20042;-85
2021/08/28 09:14:18;;;;;;;4.10;2.50;;;18.30;99.90;;;;;;5014665;28;20034;-86
2021/08/28 09:16:44;;;;;;;4.13;2.00;;;18.20;99.90;;;;;;5014930;28;20510;-87
2021/08/28 09:19:09;;;;;;;2.58;2.13;;;18.10;99.90;;;;;;5014853;28;20042;-86
2021/08/28 09:21:37;;;;;;;4.63;2.42;;;18.30;99.90;;;;;;5014606;28;20025;-86
2021/08/28 09:24:08;;;;;;;2.78;2.00;;;18.50;99.90;;;;;;5015253;28;20034;-88
2021/08/28 09:26:38;;;;;;;4.10;2.28;;;18.60;99.90;;;;;;5014315;28;20405;-87
2021/08/28 09:29:06;;;;;;;2.35;1.88;;;18.80;99.90;;;;;;5029626;28;20030;-87
2021/08/28 09:31:41;;;;;;;3.78;1.75;;;19.20;99.90;;;;;;5014534;28;20127;-88
2021/08/28 09:34:26;;;;;;;3.38;2.10;;;19.20;99.90;;;;;;5014478;28;20030;-88
2021/08/28 09:36:57;;;;;;;3.63;1.85;;;19.50;99.90;;;;;;4999264;28;20116;-88
2021/08/28 09:39:53;;;;;;;4.57;2.13;;;19.40;99.90;;;;;;5014796;28;20040;-87
2021/08/28 09:42:22;;;;;;;1.80;1.70;;;19.30;99.90;;;;;;5011329;28;20060;-88
2021/08/28 09:44:50;;;;;;;3.88;1.70;;;19.40;99.90;;;;;;5013917;28;20034;-87
2021/08/28 09:47:20;;;;;;;2.00;1.40;;;19.60;99.90;;;;;;5014477;28;20494;-88
2021/08/28 09:49:49;;;;;;;2.22;1.73;;;19.80;99.90;;;;;;5014858;28;20061;-88
2021/08/28 09:52:21;;;;;;;3.45;2.20;;;20.00;99.90;;;;;;5014178;28;20022;-88
2021/08/28 09:54:46;;;;;;;2.85;1.70;;;20.10;99.90;;;;;;5013832;28;20026;-87
2021/08/28 09:57:12;;;;;;;3.60;1.98;;;20.40;99.90;;;;;;5015045;28;20095;-88
2021/08/28 09:59:38;;;;;;;4.53;1.90;;;20.50;99.90;;;;;;5014208;28;20467;-87
2021/08/28 10:02:06;;;;;;;3.10;1.45;;;20.80;99.90;;;;;;5013926;28;20033;-87
2021/08/28 10:04:49;;;;;;;4.32;1.70;;;20.80;99.90;;;;;;5013986;28;20499;-88
2021/08/28 10:07:29;;;;;;;2.78;1.52;;;21.20;99.90;;;;;;5013163;28;20532;-88
2021/08/28 10:10:06;;;;;;;3.58;1.55;;;21.40;99.90;;;;;;4998904;28;20056;-88
2021/08/28 10:12:33;;;;;;;2.50;1.40;;;22.70;99.90;;;;;;5012444;28;20038;-88
2021/08/28 10:15:00;;;;;;;2.88;1.65;;;27.10;99.90;;;;;;5014202;28;20414;-88
2021/08/28 10:17:29;;;;;;;2.88;1.42;;;30.50;99.90;;;;;;5009722;28;20041;-88
2021/08/28 10:19:55;;;;;;;3.22;1.23;;;33.40;99.90;;;;;;5013313;28;20034;-87
2021/08/28 10:22:27;;;;;;;2.85;1.60;;;35.10;94.20;;;;;;5013888;28;20110;-91
2021/08/28 10:24:57;;;;;;;2.50;1.40;;;34.20;96.10;;;;;;4998348;28;20096;-90
2021/08/28 10:27:26;;;;;;;3.80;2.05;;;34.70;93.50;;;;;;5014474;28;20025;-91
2021/08/28 10:29:52;;;;;;;3.78;1.88;;;35.60;92.60;;;;;;5013874;28;20029;-88
2021/08/28 10:32:19;;;;;;;2.90;1.27;;;36.70;94.50;;;;;;5013901;28;20021;-90
2021/08/28 10:34:44;;;;;;;2.55;1.60;;;37.30;86.60;;;;;;5012185;28;20034;-88
2021/08/28 10:37:11;;;;;;;4.05;1.73;;;36.40;87.50;;;;;;5013246;28;20033;-89
2021/08/28 10:39:39;;;;;;;3.28;2.05;;;35.60;85.30;;;;;;5012897;28;20422;-90
2021/08/28 10:42:07;;;;;;;2.20;1.30;;;36.80;84.20;;;;;;5013628;28;20034;-88
2021/08/28 10:44:33;;;;;;;3.85;1.58;;;38.20;81.00;;;;;;5013185;28;20022;-88
2021/08/28 10:46:59;;;;;;;3.95;1.70;;;37.30;77.70;;;;;;5012566;28;20544;-88
2021/08/28 10:49:25;;;;;;;2.03;1.30;;;37.00;78.00;;;;;;5012822;28;20434;-87
2021/08/28 10:51:55;;;;;;;1.88;1.30;;;36.80;80.20;;;;;;5013420;28;20053;-87
2021/08/28 10:54:24;;;;;;;3.20;1.70;;;38.00;76.60;;;;;;5009519;28;20391;-89
2021/08/28 10:56:50;;;;;;;3.63;1.58;;;38.90;74.10;;;;;;5012779;28;20034;-87
2021/08/28 10:59:23;;;;;;;2.55;1.60;;;40.60;64.40;;;;;;5013153;28;20029;-87
2021/08/28 11:02:10;;;;;;;3.08;1.55;;;39.00;68.40;;;;;;5012776;28;20025;-88
2021/08/28 11:04:46;;;;;;;3.17;1.85;;;37.40;74.50;;;;;;5013011;28;20029;-87
2021/08/28 11:07:39;;;;;;;2.70;1.60;;;38.90;68.90;;;;;;5012052;28;20025;-86
2021/08/28 11:10:13;;;;;;;2.97;1.73;;;40.10;65.80;;;;;;4996883;28;20026;-86
2021/08/28 11:12:47;;;;;;;2.33;1.85;;;39.20;66.30;;;;;;5012169;28;20038;-85
2021/08/28 11:15:28;;;;;;;2.72;1.20;;;38.40;70.60;;;;;;5010979;28;20113;-87
2021/08/28 11:18:35;;;;;;;3.80;1.65;;;40.10;64.70;;;;;;5012257;28;20038;-87
2021/08/28 11:21:08;;;;;;;3.45;1.30;;;40.80;60.30;;;;;;4950444;29;20094;-87
2021/08/28 11:23:41;;;;;;;1.88;1.23;;;41.00;58.40;;;;;;4951605;29;20492;-87
2021/08/28 11:26:07;;;;;;;2.63;1.17;;;39.90;61.70;;;;;;4951399;29;20504;-87
2021/08/28 11:28:37;;;;;;;3.42;1.60;;;38.80;66.70;;;;;;4951719;29;20034;-87
2021/08/28 11:31:03;;;;;;;3.05;1.35;;;39.60;59.30;;;;;;4952617;29;20131;-87
2021/08/28 11:33:34;;;;;;;3.88;1.63;;;38.80;62.20;;;;;;4951431;29;20563;-87
2021/08/28 11:36:04;;;;;;;2.63;1.50;;;36.90;72.90;;;;;;4951512;29;20038;-87
2021/08/28 11:38:50;;;;;;;4.78;1.85;;;38.10;64.50;;;;;;4951304;29;20039;-87
2021/08/28 11:41:21;;;;;;;2.58;1.63;;;37.50;64.30;;;;;;4951380;29;20146;-87
2021/08/28 11:43:47;;;;;;;2.35;1.30;;;39.20;60.20;;;;;;4951657;29;20544;-87
2021/08/28 11:46:15;;;;;;;3.97;1.50;;;38.50;60.10;;;;;;4951451;29;20023;-87
2021/08/28 11:48:44;;;;;;;3.13;1.33;;;39.00;61.40;;;;;;4951600;29;20089;-88
2021/08/28 11:51:26;;;;;;;3.72;1.38;;;38.30;60.40;;;;;;4951353;29;20500;-87
2021/08/28 11:54:00;;;;;;;2.95;1.20;;;38.70;60.80;;;;;;4952160;29;20459;-88
2021/08/28 11:56:32;;;;;;;1.77;1.35;;;39.60;57.60;;;;;;4950974;29;20023;-87
2021/08/28 11:59:03;;;;;;;2.65;1.45;;;39.90;57.20;;;;;;5011595;28;20038;-88
2021/08/28 12:01:36;;;;;;;3.97;1.30;;;38.70;59.50;;;;;;5012239;28;20487;-87
2021/08/28 12:04:07;;;;;;;5.85;1.40;;;36.60;66.30;;;;;;5011687;28;20402;-88
2021/08/28 12:06:34;;;;;;;3.58;1.38;;;39.30;59.30;;;;;;5010045;28;20518;-88
2021/08/28 12:09:01;;;;;;;1.75;1.30;;;40.10;56.90;;;;;;5012176;28;20029;-88
2021/08/28 12:11:27;;;;;;;2.47;1.40;;;40.20;55.00;;;;;;5011531;28;20058;-87
2021/08/28 12:13:59;;;;;;;2.92;1.30;;;39.20;56.00;;;;;;5011424;28;20505;-88
2021/08/28 12:16:32;;;;;;;4.07;1.42;;;38.70;58.10;;;;;;5011401;28;20053;-88
2021/08/28 12:19:01;;;;;;;1.95;1.40;;;40.00;55.60;;;;;;5011766;28;20109;-88
2021/08/28 12:21:28;;;;;;;2.10;1.70;;;39.90;54.00;;;;;;5011486;28;20053;-88
2021/08/28 12:23:54;;;;;;;1.98;1.40;;;40.10;54.00;;;;;;5011162;28;20391;-88
2021/08/28 12:26:21;;;;;;;3.38;1.50;;;41.30;51.50;;;;;;5011144;28;20022;-88
2021/08/28 12:28:47;;;;;;;2.75;1.38;;;41.90;47.90;;;;;;5011430;28;20048;-88
2021/08/28 12:31:16;;;;;;;3.03;1.40;;;42.30;48.40;;;;;;5011379;28;20030;-88
2021/08/28 12:33:42;;;;;;;3.38;1.50;;;40.90;49.40;;;;;;5011905;28;20067;-88
2021/08/28 12:36:31;;;;;;;3.95;1.55;;;40.60;48.60;;;;;;5011842;28;20061;-88
2021/08/28 12:39:06;;;;;;;3.55;2.47;;;40.00;55.30;;;;;;5011364;28;20049;-88
2021/08/28 12:41:32;;;;;;;2.80;1.70;;;39.40;63.20;;;;;;5011579;28;20128;-88
2021/08/28 12:43:58;;;;;;;3.17;1.88;;;39.40;54.60;;;;;;5011650;28;20105;-88
2021/08/28 12:46:25;;;;;;;5.07;3.15;;;39.00;54.00;;;;;;5011292;28;20018;-88
2021/08/28 12:49:13;;;;;;;4.90;2.30;;;39.40;52.90;;;;;;5011672;28;20022;-88
2021/08/28 12:52:03;;;;;;;1.95;1.48;;;40.40;51.50;;;;;;5025131;28;20029;-88